TimeEDT,TemperatureF,Dew PointF,Humidity,Sea Level PressureIn,VisibilityMPH,Wind Direction,Wind SpeedMPH,Gust SpeedMPH,PrecipitationIn,Events,Conditions,WindDirDegrees,DateUTC
12:53 AM,44.1,37.9,79,30.21,10.0,Calm,Calm,-,N/A,,Clear,0,2013-05-27 04:53:00
1:53 AM,42.1,39.0,89,30.22,10.0,Calm,Calm,-,N/A,,Clear,0,2013-05-27 05:53:00
2:53 AM,41.0,37.9,89,30.22,10.0,Calm,Calm,-,N/A,,Clear,0,2013-05-27 06:53:00
3:53 AM,39.0,36.0,89,30.22,10.0,Calm,Calm,-,N/A,,Clear,0,2013-05-27 07:53:00
4:53 AM,37.9,36.0,93,30.23,10.0,Calm,Calm,-,N/A,,Clear,0,2013-05-27 08:53:00
5:53 AM,37.0,35.1,93,30.24,10.0,Calm,Calm,-,N/A,,Clear,0,2013-05-27 09:53:00
6:53 AM,41.0,37.9,89,30.25,10.0,Calm,Calm,-,N/A,,Clear,0,2013-05-27 10:53:00
7:53 AM,50.0,43.0,77,30.25,10.0,Calm,Calm,-,N/A,,Clear,0,2013-05-27 11:53:00
8:53 AM,60.1,39.9,47,30.25,10.0,Variable,3.5,-,N/A,,Clear,0,2013-05-27 12:53:00
9:53 AM,63.0,37.0,38,30.24,10.0,Variable,6.9,-,N/A,,Clear,0,2013-05-27 13:53:00
10:53 AM,66.0,32.0,28,30.23,10.0,NNW,4.6,-,N/A,,Clear,330,2013-05-27 14:53:00
11:53 AM,68.0,39.0,35,30.22,10.0,Variable,4.6,-,N/A,,Clear,0,2013-05-27 15:53:00
12:53 PM,70.0,37.0,30,30.20,10.0,Variable,5.8,-,N/A,,Clear,0,2013-05-27 16:53:00
1:53 PM,72.0,37.0,28,30.17,10.0,WNW,8.1,-,N/A,,Clear,290,2013-05-27 17:53:00
2:53 PM,73.0,37.9,28,30.16,10.0,Variable,3.5,-,N/A,,Clear,0,2013-05-27 18:53:00
3:53 PM,73.9,39.9,29,30.14,10.0,Variable,3.5,-,N/A,,Clear,0,2013-05-27 19:53:00
4:53 PM,73.0,39.9,30,30.12,10.0,Variable,6.9,-,N/A,,Clear,0,2013-05-27 20:53:00
5:53 PM,71.1,37.0,29,30.13,10.0,Variable,3.5,-,N/A,,Clear,0,2013-05-27 21:53:00
6:53 PM,69.1,41.0,36,30.13,10.0,Calm,Calm,-,N/A,,Clear,0,2013-05-27 22:53:00
7:53 PM,64.9,42.1,43,30.13,10.0,Calm,Calm,-,N/A,,Clear,0,2013-05-27 23:53:00
8:53 PM,57.9,46.0,65,30.14,10.0,Calm,Calm,-,N/A,,Clear,0,2013-05-28 00:53:00
9:53 PM,53.1,46.9,80,30.15,10.0,Calm,Calm,-,N/A,,Clear,0,2013-05-28 01:53:00
10:53 PM,52.0,46.9,83,30.17,10.0,Calm,Calm,-,N/A,,Clear,0,2013-05-28 02:53:00
11:53 PM,51.1,48.0,89,30.18,10.0,Calm,Calm,-,N/A,,Clear,0,2013-05-28 03:53:00